Terminal Aerodrome Forecast
Issued by NWS

Home | Current Version | Previous Version | Text Only | Print | Product List | Glossary On
Versions: 1 2 3 4 5 6 7 8 9 10 11 12 13
000
FTUS45 KABQ 201700
TAFGUP
TAF
KGUP 201729Z 2018/2118 24010G15KT P6SM SKC
     FM202100 30010G20KT P6SM FEW100
     FM210200 27005KT P6SM SKC=

USA.gov is the U.S. government's official web portal to all federal, state and local government web resources and services.